createdAt,value
2022-10-11T00:06:26.327Z,99721.34
2022-10-11T00:16:32.015Z,99720.20
2022-10-11T00:26:37.618Z,99721.23
2022-10-11T00:36:43.233Z,99723.92
2022-10-11T00:46:56.226Z,99725.31
2022-10-11T00:57:06.405Z,99718.54
2022-10-11T01:07:12.911Z,99716.73
2022-10-11T01:17:25.918Z,99712.95
2022-10-11T01:27:50.739Z,99710.45
2022-10-11T01:38:04.018Z,99710.70
2022-10-11T01:48:12.427Z,99709.50
2022-10-11T01:58:32.740Z,99709.30
2022-10-11T02:08:46.242Z,99713.65
2022-10-11T02:18:56.812Z,99713.94
2022-10-11T02:29:05.282Z,99714.75
2022-10-11T02:39:19.675Z,99714.30
2022-10-11T02:49:27.409Z,99710.67
2022-10-11T02:59:33.044Z,99727.36
2022-10-11T03:09:38.894Z,99729.82
2022-10-11T03:19:44.638Z,99731.73
2022-10-11T03:29:50.388Z,99745.80
2022-10-11T03:39:56.151Z,99753.46
2022-10-11T03:50:01.852Z,99765.17
2022-10-11T04:00:10.290Z,99783.71
2022-10-11T04:10:15.870Z,99798.48
2022-10-11T04:20:21.558Z,99809.98
2022-10-11T04:30:27.142Z,99811.05
2022-10-11T04:40:32.800Z,99824.59
2022-10-11T04:50:38.694Z,99831.91
2022-10-11T05:00:44.478Z,99833.70
2022-10-11T05:10:58.764Z,99840.42
2022-10-11T05:21:06.821Z,99858.55
2022-10-11T05:31:12.883Z,99869.08
2022-10-11T05:41:18.671Z,99883.93
2022-10-11T05:51:24.304Z,99894.58
2022-10-11T06:01:30.608Z,99913.41
2022-10-11T06:11:36.326Z,99931.27
2022-10-11T06:21:41.950Z,99953.53
2022-10-11T06:31:48.777Z,99972.65
2022-10-11T06:41:54.341Z,99986.82
2022-10-11T06:52:00.166Z,100003.31
2022-10-11T07:02:05.753Z,100009.92
2022-10-11T07:12:11.866Z,100028.27
2022-10-11T07:22:17.541Z,100039.20
2022-10-11T07:32:23.157Z,100054.56
2022-10-11T07:42:28.913Z,100069.51
2022-10-11T07:52:35.950Z,100083.77
2022-10-11T08:02:41.573Z,100097.84
2022-10-11T08:12:49.578Z,100110.25
2022-10-11T08:22:55.190Z,100117.19
2022-10-11T08:33:03.043Z,100128.06
2022-10-11T08:43:26.877Z,100128.11
2022-10-11T08:53:45.652Z,100130.60
2022-10-11T09:03:52.227Z,100140.09
2022-10-11T09:14:27.739Z,100147.52
2022-10-11T09:24:47.427Z,100156.55
2022-10-11T09:34:59.603Z,100155.64
2022-10-11T09:45:15.612Z,100162.31
2022-10-11T09:55:36.790Z,100163.41
2022-10-11T10:05:42.481Z,100169.07
2022-10-11T10:15:50.907Z,100174.86
2022-10-11T10:26:13.395Z,100173.74
2022-10-11T10:36:25.464Z,100180.58
2022-10-11T10:46:46.569Z,100189.20
2022-10-11T10:56:57.238Z,100198.08
2022-10-11T11:07:14.371Z,100202.81
2022-10-11T11:17:31.897Z,100206.27
2022-10-11T11:27:51.784Z,100212.17
2022-10-11T11:38:06.354Z,100221.80
2022-10-11T11:48:19.653Z,100221.28
2022-10-11T11:58:36.863Z,100218.98
2022-10-11T12:08:45.611Z,100226.50
2022-10-11T12:19:00.618Z,100220.67
2022-10-11T12:29:43.424Z,100222.19
2022-10-11T12:39:54.909Z,100228.84
2022-10-11T12:50:14.292Z,100232.92
2022-10-11T13:00:26.301Z,100234.23
2022-10-11T13:10:36.968Z,100238.02
2022-10-11T13:20:43.035Z,100246.14
2022-10-11T13:30:52.330Z,100251.61
2022-10-11T13:40:59.543Z,100255.46
2022-10-11T13:51:09.968Z,100253.91
2022-10-11T14:01:23.294Z,100258.27
2022-10-11T14:11:40.276Z,100257.80
2022-10-11T14:21:53.928Z,100254.23
2022-10-11T14:32:03.973Z,100258.48
2022-10-11T14:42:10.375Z,100265.05
2022-10-11T14:52:16.312Z,100264.03
2022-10-11T15:02:21.918Z,100273.00
2022-10-11T15:12:27.582Z,100274.94
2022-10-11T15:22:33.280Z,100283.46
2022-10-11T15:32:38.937Z,100292.27
2022-10-11T15:42:44.822Z,100301.19
2022-10-11T15:52:50.724Z,100308.48
2022-10-11T16:02:57.559Z,100322.13
2022-10-11T16:13:03.290Z,100328.67
2022-10-11T16:23:09.643Z,100333.48
2022-10-11T16:33:15.642Z,100345.14
2022-10-11T16:43:21.391Z,100353.56
2022-10-11T16:53:27.347Z,100357.73
2022-10-11T17:03:32.961Z,100364.05
2022-10-11T17:13:38.626Z,100366.55
2022-10-11T17:23:45.096Z,100369.55
2022-10-11T17:33:50.707Z,100373.96
2022-10-11T17:43:56.375Z,100380.35
2022-10-11T17:54:02.151Z,100382.03
2022-10-11T18:04:10.197Z,100383.98
2022-10-11T18:14:16.211Z,100386.56
2022-10-11T18:24:21.832Z,100391.88
2022-10-11T18:34:27.500Z,100391.91
2022-10-11T18:44:33.351Z,100395.39
2022-10-11T18:54:39.064Z,100404.66
2022-10-11T19:04:44.655Z,100404.46
2022-10-11T19:14:50.562Z,100407.11
2022-10-11T19:24:56.401Z,100405.38
2022-10-11T19:35:02.248Z,100410.27
2022-10-11T19:45:10.061Z,100414.61
2022-10-11T19:55:15.082Z,100422.04
2022-10-11T20:05:20.850Z,100423.15
2022-10-11T20:15:26.485Z,100428.88
2022-10-11T20:25:32.313Z,100431.67
2022-10-11T20:35:38.115Z,100431.44
2022-10-11T20:45:43.922Z,100434.41
2022-10-11T20:55:50.046Z,100439.54
2022-10-11T21:06:01.606Z,100445.16
2022-10-11T21:16:10.856Z,100452.19
2022-10-11T21:26:18.348Z,100450.55
2022-10-11T21:36:23.425Z,100461.64
2022-10-11T21:47:04.790Z,100459.30
2022-10-11T21:56:56.539Z,100462.45
2022-10-11T22:07:02.299Z,100464.52
2022-10-11T22:17:07.977Z,100466.42
2022-10-11T22:27:14.083Z,100463.81
2022-10-11T22:37:19.638Z,100467.13
2022-10-11T22:47:25.657Z,100474.25
2022-10-11T22:57:31.284Z,100476.46
2022-10-11T23:07:37.384Z,100475.00
2022-10-11T23:17:43.665Z,100475.27
2022-10-11T23:27:49.256Z,100478.14
2022-10-11T23:37:56.669Z,100478.38
2022-10-11T23:48:02.299Z,100483.65
2022-10-11T23:58:08.068Z,100484.42
